sensor_id;sensor_type;location;lat;lon;timestamp;P1;durP1;ratioP1;P2;durP2;ratioP2
39970;SDS011;35425;51.142;17.178;2024-03-08T00:00:31;11.93;;;9.32;;
39970;SDS011;35425;51.142;17.178;2024-03-08T00:02:59;9.90;;;8.57;;
39970;SDS011;35425;51.142;17.178;2024-03-08T00:05:29;10.63;;;9.02;;
39970;SDS011;35425;51.142;17.178;2024-03-08T00:07:59;10.80;;;9.50;;
39970;SDS011;35425;51.142;17.178;2024-03-08T00:10:26;10.63;;;9.10;;
39970;SDS011;35425;51.142;17.178;2024-03-08T00:12:57;9.63;;;8.63;;
39970;SDS011;35425;51.142;17.178;2024-03-08T00:15:24;9.63;;;8.63;;
39970;SDS011;35425;51.142;17.178;2024-03-08T00:17:51;10.88;;;9.07;;
39970;SDS011;35425;51.142;17.178;2024-03-08T00:20:22;10.27;;;8.82;;
39970;SDS011;35425;51.142;17.178;2024-03-08T00:22:55;10.30;;;8.98;;
39970;SDS011;35425;51.142;17.178;2024-03-08T00:25:27;11.75;;;9.30;;
39970;SDS011;35425;51.142;17.178;2024-03-08T00:27:54;10.50;;;8.68;;
39970;SDS011;35425;51.142;17.178;2024-03-08T00:30:26;11.35;;;9.52;;
39970;SDS011;35425;51.142;17.178;2024-03-08T00:32:53;10.48;;;9.05;;
39970;SDS011;35425;51.142;17.178;2024-03-08T00:35:20;10.70;;;9.48;;
39970;SDS011;35425;51.142;17.178;2024-03-08T00:37:48;10.82;;;9.18;;
39970;SDS011;35425;51.142;17.178;2024-03-08T00:40:22;9.75;;;8.75;;
39970;SDS011;35425;51.142;17.178;2024-03-08T00:42:49;9.80;;;8.80;;
39970;SDS011;35425;51.142;17.178;2024-03-08T00:45:16;9.95;;;8.90;;
39970;SDS011;35425;51.142;17.178;2024-03-08T00:47:43;10.10;;;9.07;;
39970;SDS011;35425;51.142;17.178;2024-03-08T00:50:11;11.05;;;8.90;;
39970;SDS011;35425;51.142;17.178;2024-03-08T00:52:38;11.15;;;9.35;;
39970;SDS011;35425;51.142;17.178;2024-03-08T00:55:05;9.73;;;8.60;;
39970;SDS011;35425;51.142;17.178;2024-03-08T00:57:32;11.27;;;9.23;;
39970;SDS011;35425;51.142;17.178;2024-03-08T00:59:59;9.52;;;8.45;;
39970;SDS011;35425;51.142;17.178;2024-03-08T01:02:26;9.85;;;8.85;;
39970;SDS011;35425;51.142;17.178;2024-03-08T01:04:53;11.25;;;9.25;;
39970;SDS011;35425;51.142;17.178;2024-03-08T01:07:20;10.68;;;8.77;;
39970;SDS011;35425;51.142;17.178;2024-03-08T01:09:48;12.50;;;9.65;;
39970;SDS011;35425;51.142;17.178;2024-03-08T01:12:15;10.38;;;9.27;;
39970;SDS011;35425;51.142;17.178;2024-03-08T01:14:42;10.43;;;9.00;;
39970;SDS011;35425;51.142;17.178;2024-03-08T01:17:09;9.18;;;8.18;;
39970;SDS011;35425;51.142;17.178;2024-03-08T01:19:36;10.18;;;9.13;;
39970;SDS011;35425;51.142;17.178;2024-03-08T01:22:03;10.43;;;8.77;;
39970;SDS011;35425;51.142;17.178;2024-03-08T01:24:30;10.07;;;8.85;;
39970;SDS011;35425;51.142;17.178;2024-03-08T01:26:57;10.48;;;8.50;;
39970;SDS011;35425;51.142;17.178;2024-03-08T01:29:24;10.60;;;8.98;;
39970;SDS011;35425;51.142;17.178;2024-03-08T01:31:51;9.50;;;8.50;;
39970;SDS011;35425;51.142;17.178;2024-03-08T01:34:19;10.00;;;9.00;;
39970;SDS011;35425;51.142;17.178;2024-03-08T01:36:46;9.40;;;8.23;;
39970;SDS011;35425;51.142;17.178;2024-03-08T01:39:12;9.77;;;8.75;;
39970;SDS011;35425;51.142;17.178;2024-03-08T01:41:39;10.23;;;8.90;;
39970;SDS011;35425;51.142;17.178;2024-03-08T01:44:06;10.10;;;8.50;;
39970;SDS011;35425;51.142;17.178;2024-03-08T01:46:33;9.18;;;8.27;;
39970;SDS011;35425;51.142;17.178;2024-03-08T01:49:01;9.90;;;8.25;;
39970;SDS011;35425;51.142;17.178;2024-03-08T01:51:29;9.70;;;8.25;;
39970;SDS011;35425;51.142;17.178;2024-03-08T01:53:56;10.20;;;8.55;;
39970;SDS011;35425;51.142;17.178;2024-03-08T01:56:24;9.70;;;8.40;;
39970;SDS011;35425;51.142;17.178;2024-03-08T01:58:52;9.60;;;8.30;;
39970;SDS011;35425;51.142;17.178;2024-03-08T02:01:19;9.57;;;8.43;;
39970;SDS011;35425;51.142;17.178;2024-03-08T02:03:46;9.48;;;8.48;;
39970;SDS011;35425;51.142;17.178;2024-03-08T02:06:13;9.20;;;8.10;;
39970;SDS011;35425;51.142;17.178;2024-03-08T02:08:47;11.20;;;9.52;;
39970;SDS011;35425;51.142;17.178;2024-03-08T02:14:42;9.68;;;8.52;;
39970;SDS011;35425;51.142;17.178;2024-03-08T02:17:14;9.75;;;8.60;;
39970;SDS011;35425;51.142;17.178;2024-03-08T02:19:41;9.20;;;8.05;;
39970;SDS011;35425;51.142;17.178;2024-03-08T02:22:08;9.18;;;8.10;;
39970;SDS011;35425;51.142;17.178;2024-03-08T02:24:35;8.93;;;7.97;;
39970;SDS011;35425;51.142;17.178;2024-03-08T02:27:02;10.23;;;8.50;;
39970;SDS011;35425;51.142;17.178;2024-03-08T02:29:29;9.65;;;8.57;;
39970;SDS011;35425;51.142;17.178;2024-03-08T02:31:57;9.73;;;8.30;;
39970;SDS011;35425;51.142;17.178;2024-03-08T02:34:24;9.20;;;8.27;;
39970;SDS011;35425;51.142;17.178;2024-03-08T02:36:50;9.50;;;7.93;;
39970;SDS011;35425;51.142;17.178;2024-03-08T02:39:18;9.43;;;7.68;;
39970;SDS011;35425;51.142;17.178;2024-03-08T02:41:46;9.00;;;7.43;;
39970;SDS011;35425;51.142;17.178;2024-03-08T02:44:13;9.13;;;8.10;;
39970;SDS011;35425;51.142;17.178;2024-03-08T02:46:41;9.23;;;7.65;;
39970;SDS011;35425;51.142;17.178;2024-03-08T02:49:11;9.30;;;7.88;;
39970;SDS011;35425;51.142;17.178;2024-03-08T02:51:38;10.20;;;8.70;;
39970;SDS011;35425;51.142;17.178;2024-03-08T02:54:08;8.25;;;7.25;;
39970;SDS011;35425;51.142;17.178;2024-03-08T02:56:36;9.32;;;8.00;;
39970;SDS011;35425;51.142;17.178;2024-03-08T02:59:03;8.85;;;7.95;;
39970;SDS011;35425;51.142;17.178;2024-03-08T03:01:30;9.57;;;8.32;;
39970;SDS011;35425;51.142;17.178;2024-03-08T03:03:58;9.70;;;8.43;;
39970;SDS011;35425;51.142;17.178;2024-03-08T03:06:25;8.85;;;7.70;;
39970;SDS011;35425;51.142;17.178;2024-03-08T03:08:52;9.98;;;8.43;;
39970;SDS011;35425;51.142;17.178;2024-03-08T03:11:20;10.32;;;8.75;;
39970;SDS011;35425;51.142;17.178;2024-03-08T03:13:48;10.10;;;8.90;;
39970;SDS011;35425;51.142;17.178;2024-03-08T03:16:19;10.68;;;8.88;;
39970;SDS011;35425;51.142;17.178;2024-03-08T03:18:47;9.98;;;8.85;;
39970;SDS011;35425;51.142;17.178;2024-03-08T03:21:17;10.13;;;8.73;;
39970;SDS011;35425;51.142;17.178;2024-03-08T03:23:48;10.43;;;8.80;;
39970;SDS011;35425;51.142;17.178;2024-03-08T03:26:15;10.02;;;8.70;;
39970;SDS011;35425;51.142;17.178;2024-03-08T03:28:44;9.50;;;8.48;;
39970;SDS011;35425;51.142;17.178;2024-03-08T03:31:11;10.88;;;8.95;;
39970;SDS011;35425;51.142;17.178;2024-03-08T03:33:40;9.50;;;8.07;;
39970;SDS011;35425;51.142;17.178;2024-03-08T03:36:08;9.32;;;8.18;;
39970;SDS011;35425;51.142;17.178;2024-03-08T03:38:36;11.00;;;8.40;;
39970;SDS011;35425;51.142;17.178;2024-03-08T03:41:04;10.13;;;8.13;;
39970;SDS011;35425;51.142;17.178;2024-03-08T03:43:37;10.52;;;8.65;;
39970;SDS011;35425;51.142;17.178;2024-03-08T03:46:06;8.77;;;7.57;;
39970;SDS011;35425;51.142;17.178;2024-03-08T03:48:33;10.82;;;8.40;;
39970;SDS011;35425;51.142;17.178;2024-03-08T03:51:00;10.40;;;8.38;;
39970;SDS011;35425;51.142;17.178;2024-03-08T03:53:31;9.15;;;8.05;;
39970;SDS011;35425;51.142;17.178;2024-03-08T03:55:58;10.38;;;8.18;;
39970;SDS011;35425;51.142;17.178;2024-03-08T03:58:26;9.77;;;7.75;;
39970;SDS011;35425;51.142;17.178;2024-03-08T04:00:54;9.30;;;7.75;;
39970;SDS011;35425;51.142;17.178;2024-03-08T04:03:21;8.63;;;7.45;;
39970;SDS011;35425;51.142;17.178;2024-03-08T04:05:48;9.90;;;8.90;;
39970;SDS011;35425;51.142;17.178;2024-03-08T04:08:15;9.52;;;7.88;;
39970;SDS011;35425;51.142;17.178;2024-03-08T04:10:43;9.32;;;7.90;;
39970;SDS011;35425;51.142;17.178;2024-03-08T04:13:10;9.48;;;7.72;;
39970;SDS011;35425;51.142;17.178;2024-03-08T04:15:37;9.45;;;7.97;;
39970;SDS011;35425;51.142;17.178;2024-03-08T04:18:04;9.40;;;8.10;;
39970;SDS011;35425;51.142;17.178;2024-03-08T04:20:31;9.80;;;8.43;;
39970;SDS011;35425;51.142;17.178;2024-03-08T04:22:58;9.52;;;7.88;;
39970;SDS011;35425;51.142;17.178;2024-03-08T04:25:25;9.45;;;8.27;;
39970;SDS011;35425;51.142;17.178;2024-03-08T04:27:53;8.90;;;7.85;;
39970;SDS011;35425;51.142;17.178;2024-03-08T04:30:20;8.68;;;7.60;;
39970;SDS011;35425;51.142;17.178;2024-03-08T04:32:48;8.57;;;7.65;;
39970;SDS011;35425;51.142;17.178;2024-03-08T04:35:16;9.40;;;8.40;;
39970;SDS011;35425;51.142;17.178;2024-03-08T04:37:42;8.82;;;7.63;;
39970;SDS011;35425;51.142;17.178;2024-03-08T04:40:10;8.85;;;7.70;;
39970;SDS011;35425;51.142;17.178;2024-03-08T04:42:37;9.23;;;8.07;;
39970;SDS011;35425;51.142;17.178;2024-03-08T04:45:05;9.00;;;7.70;;
39970;SDS011;35425;51.142;17.178;2024-03-08T04:47:36;9.32;;;8.25;;
39970;SDS011;35425;51.142;17.178;2024-03-08T04:50:03;9.98;;;8.30;;
39970;SDS011;35425;51.142;17.178;2024-03-08T04:52:33;9.30;;;8.27;;
39970;SDS011;35425;51.142;17.178;2024-03-08T04:55:00;8.85;;;7.40;;
39970;SDS011;35425;51.142;17.178;2024-03-08T04:57:28;8.68;;;7.35;;
39970;SDS011;35425;51.142;17.178;2024-03-08T04:59:55;9.52;;;7.90;;
39970;SDS011;35425;51.142;17.178;2024-03-08T05:02:22;8.77;;;7.55;;
39970;SDS011;35425;51.142;17.178;2024-03-08T05:04:49;9.02;;;7.88;;
39970;SDS011;35425;51.142;17.178;2024-03-08T05:07:16;8.55;;;7.65;;
39970;SDS011;35425;51.142;17.178;2024-03-08T05:09:44;9.13;;;7.90;;
39970;SDS011;35425;51.142;17.178;2024-03-08T05:12:18;10.60;;;8.18;;
39970;SDS011;35425;51.142;17.178;2024-03-08T05:14:45;9.55;;;8.15;;
39970;SDS011;35425;51.142;17.178;2024-03-08T05:17:16;8.90;;;7.43;;
39970;SDS011;35425;51.142;17.178;2024-03-08T05:19:44;9.65;;;8.02;;
39970;SDS011;35425;51.142;17.178;2024-03-08T05:22:11;8.73;;;7.40;;
39970;SDS011;35425;51.142;17.178;2024-03-08T05:24:38;9.30;;;7.75;;
39970;SDS011;35425;51.142;17.178;2024-03-08T05:27:05;8.13;;;7.25;;
39970;SDS011;35425;51.142;17.178;2024-03-08T05:29:32;8.85;;;7.50;;
39970;SDS011;35425;51.142;17.178;2024-03-08T05:32:00;9.80;;;8.30;;
39970;SDS011;35425;51.142;17.178;2024-03-08T05:34:27;10.32;;;8.13;;
39970;SDS011;35425;51.142;17.178;2024-03-08T05:36:55;8.20;;;7.22;;
39970;SDS011;35425;51.142;17.178;2024-03-08T05:39:24;8.32;;;7.47;;
39970;SDS011;35425;51.142;17.178;2024-03-08T05:41:51;9.68;;;7.90;;
39970;SDS011;35425;51.142;17.178;2024-03-08T05:44:18;9.32;;;7.80;;
39970;SDS011;35425;51.142;17.178;2024-03-08T05:46:45;9.05;;;7.75;;
39970;SDS011;35425;51.142;17.178;2024-03-08T05:49:15;9.10;;;7.90;;
39970;SDS011;35425;51.142;17.178;2024-03-08T05:51:42;9.48;;;8.50;;
39970;SDS011;35425;51.142;17.178;2024-03-08T05:54:12;9.35;;;7.97;;
39970;SDS011;35425;51.142;17.178;2024-03-08T05:56:43;9.43;;;8.30;;
39970;SDS011;35425;51.142;17.178;2024-03-08T05:59:11;9.73;;;8.18;;
39970;SDS011;35425;51.142;17.178;2024-03-08T06:01:40;9.52;;;8.25;;
39970;SDS011;35425;51.142;17.178;2024-03-08T06:04:08;10.65;;;8.38;;
39970;SDS011;35425;51.142;17.178;2024-03-08T06:06:36;8.85;;;7.95;;
39970;SDS011;35425;51.142;17.178;2024-03-08T06:09:04;9.13;;;7.93;;
39970;SDS011;35425;51.142;17.178;2024-03-08T06:11:39;8.98;;;7.95;;
39970;SDS011;35425;51.142;17.178;2024-03-08T06:14:06;10.27;;;7.65;;
39970;SDS011;35425;51.142;17.178;2024-03-08T06:16:33;9.32;;;8.10;;
39970;SDS011;35425;51.142;17.178;2024-03-08T06:19:00;9.20;;;8.15;;
39970;SDS011;35425;51.142;17.178;2024-03-08T06:21:28;9.63;;;8.52;;
39970;SDS011;35425;51.142;17.178;2024-03-08T06:23:55;9.45;;;8.07;;
39970;SDS011;35425;51.142;17.178;2024-03-08T06:26:24;8.93;;;7.90;;
39970;SDS011;35425;51.142;17.178;2024-03-08T06:28:56;9.60;;;8.20;;
39970;SDS011;35425;51.142;17.178;2024-03-08T06:31:22;9.63;;;8.63;;
39970;SDS011;35425;51.142;17.178;2024-03-08T06:33:50;9.63;;;8.23;;
39970;SDS011;35425;51.142;17.178;2024-03-08T06:36:17;9.48;;;8.38;;
39970;SDS011;35425;51.142;17.178;2024-03-08T06:38:45;10.18;;;8.30;;
39970;SDS011;35425;51.142;17.178;2024-03-08T06:41:15;9.02;;;8.07;;
39970;SDS011;35425;51.142;17.178;2024-03-08T06:43:42;10.40;;;8.68;;
39970;SDS011;35425;51.142;17.178;2024-03-08T06:46:09;9.75;;;8.57;;
39970;SDS011;35425;51.142;17.178;2024-03-08T06:48:39;9.35;;;8.05;;
39970;SDS011;35425;51.142;17.178;2024-03-08T06:51:06;9.48;;;8.18;;
39970;SDS011;35425;51.142;17.178;2024-03-08T06:53:34;9.15;;;7.63;;
39970;SDS011;35425;51.142;17.178;2024-03-08T06:56:04;10.27;;;8.75;;
39970;SDS011;35425;51.142;17.178;2024-03-08T06:58:31;8.43;;;7.53;;
39970;SDS011;35425;51.142;17.178;2024-03-08T07:00:59;8.68;;;7.55;;
39970;SDS011;35425;51.142;17.178;2024-03-08T07:03:27;8.60;;;7.32;;
39970;SDS011;35425;51.142;17.178;2024-03-08T07:05:56;8.60;;;7.70;;
39970;SDS011;35425;51.142;17.178;2024-03-08T07:08:25;9.00;;;7.95;;
39970;SDS011;35425;51.142;17.178;2024-03-08T07:10:54;8.55;;;7.65;;
39970;SDS011;35425;51.142;17.178;2024-03-08T07:13:21;8.93;;;7.55;;
39970;SDS011;35425;51.142;17.178;2024-03-08T07:15:48;8.48;;;7.55;;
39970;SDS011;35425;51.142;17.178;2024-03-08T07:18:15;8.65;;;7.68;;
39970;SDS011;35425;51.142;17.178;2024-03-08T07:20:42;10.30;;;8.07;;
39970;SDS011;35425;51.142;17.178;2024-03-08T07:23:10;8.60;;;7.68;;
39970;SDS011;35425;51.142;17.178;2024-03-08T07:25:40;8.98;;;8.10;;
39970;SDS011;35425;51.142;17.178;2024-03-08T07:28:10;9.07;;;8.18;;
39970;SDS011;35425;51.142;17.178;2024-03-08T07:30:39;8.95;;;7.70;;
39970;SDS011;35425;51.142;17.178;2024-03-08T07:33:12;8.48;;;7.22;;
39970;SDS011;35425;51.142;17.178;2024-03-08T07:35:40;9.15;;;7.65;;
39970;SDS011;35425;51.142;17.178;2024-03-08T07:38:08;9.38;;;7.53;;
39970;SDS011;35425;51.142;17.178;2024-03-08T07:40:39;9.07;;;7.63;;
39970;SDS011;35425;51.142;17.178;2024-03-08T07:43:07;7.90;;;7.10;;
39970;SDS011;35425;51.142;17.178;2024-03-08T07:45:34;7.88;;;7.07;;
39970;SDS011;35425;51.142;17.178;2024-03-08T07:48:03;8.00;;;7.20;;
39970;SDS011;35425;51.142;17.178;2024-03-08T07:50:30;8.35;;;7.22;;
39970;SDS011;35425;51.142;17.178;2024-03-08T07:53:00;7.93;;;6.75;;
39970;SDS011;35425;51.142;17.178;2024-03-08T07:55:28;8.48;;;7.20;;
39970;SDS011;35425;51.142;17.178;2024-03-08T07:57:57;8.52;;;7.30;;
39970;SDS011;35425;51.142;17.178;2024-03-08T08:00:24;8.05;;;7.00;;
39970;SDS011;35425;51.142;17.178;2024-03-08T08:02:54;7.47;;;6.78;;
39970;SDS011;35425;51.142;17.178;2024-03-08T08:05:21;6.78;;;6.07;;
39970;SDS011;35425;51.142;17.178;2024-03-08T08:07:48;6.97;;;6.28;;
39970;SDS011;35425;51.142;17.178;2024-03-08T08:10:18;7.10;;;6.40;;
39970;SDS011;35425;51.142;17.178;2024-03-08T08:12:49;7.13;;;6.43;;
39970;SDS011;35425;51.142;17.178;2024-03-08T08:15:16;7.07;;;6.38;;
39970;SDS011;35425;51.142;17.178;2024-03-08T08:17:47;7.18;;;6.45;;
39970;SDS011;35425;51.142;17.178;2024-03-08T08:20:18;6.97;;;6.20;;
39970;SDS011;35425;51.142;17.178;2024-03-08T08:22:45;7.18;;;6.47;;
39970;SDS011;35425;51.142;17.178;2024-03-08T08:25:14;7.45;;;5.75;;
39970;SDS011;35425;51.142;17.178;2024-03-08T08:27:42;7.20;;;6.32;;
39970;SDS011;35425;51.142;17.178;2024-03-08T08:30:12;6.65;;;5.93;;
39970;SDS011;35425;51.142;17.178;2024-03-08T08:32:39;6.95;;;6.20;;
39970;SDS011;35425;51.142;17.178;2024-03-08T08:35:06;7.18;;;6.35;;
39970;SDS011;35425;51.142;17.178;2024-03-08T08:37:34;6.80;;;6.07;;
39970;SDS011;35425;51.142;17.178;2024-03-08T08:40:05;6.22;;;5.63;;
39970;SDS011;35425;51.142;17.178;2024-03-08T08:42:38;6.72;;;6.03;;
39970;SDS011;35425;51.142;17.178;2024-03-08T08:45:05;7.47;;;6.78;;
39970;SDS011;35425;51.142;17.178;2024-03-08T08:47:42;7.00;;;6.30;;
39970;SDS011;35425;51.142;17.178;2024-03-08T08:50:10;7.22;;;6.40;;
39970;SDS011;35425;51.142;17.178;2024-03-08T08:52:39;7.00;;;6.30;;
39970;SDS011;35425;51.142;17.178;2024-03-08T08:55:06;7.65;;;5.97;;
39970;SDS011;35425;51.142;17.178;2024-03-08T08:57:34;7.32;;;6.47;;
39970;SDS011;35425;51.142;17.178;2024-03-08T09:00:03;7.07;;;6.15;;
39970;SDS011;35425;51.142;17.178;2024-03-08T09:02:34;6.88;;;6.18;;
39970;SDS011;35425;51.142;17.178;2024-03-08T09:05:01;7.30;;;6.60;;
39970;SDS011;35425;51.142;17.178;2024-03-08T09:07:29;6.68;;;6.03;;
39970;SDS011;35425;51.142;17.178;2024-03-08T09:09:56;6.57;;;5.97;;
39970;SDS011;35425;51.142;17.178;2024-03-08T09:12:25;6.68;;;5.97;;
39970;SDS011;35425;51.142;17.178;2024-03-08T09:14:52;6.70;;;6.00;;
39970;SDS011;35425;51.142;17.178;2024-03-08T09:17:19;7.35;;;6.47;;
39970;SDS011;35425;51.142;17.178;2024-03-08T09:19:49;6.95;;;6.28;;
39970;SDS011;35425;51.142;17.178;2024-03-08T09:22:16;6.60;;;5.90;;
39970;SDS011;35425;51.142;17.178;2024-03-08T09:24:44;6.70;;;6.00;;
39970;SDS011;35425;51.142;17.178;2024-03-08T09:27:12;7.53;;;6.22;;
39970;SDS011;35425;51.142;17.178;2024-03-08T09:29:40;7.10;;;6.35;;
39970;SDS011;35425;51.142;17.178;2024-03-08T09:32:07;6.57;;;5.85;;
39970;SDS011;35425;51.142;17.178;2024-03-08T09:34:34;6.22;;;5.63;;
39970;SDS011;35425;51.142;17.178;2024-03-08T09:37:04;6.43;;;5.80;;
39970;SDS011;35425;51.142;17.178;2024-03-08T09:39:33;6.70;;;6.07;;
39970;SDS011;35425;51.142;17.178;2024-03-08T09:42:00;6.25;;;5.60;;
39970;SDS011;35425;51.142;17.178;2024-03-08T09:44:28;6.60;;;5.90;;
39970;SDS011;35425;51.142;17.178;2024-03-08T09:46:58;6.90;;;6.13;;
39970;SDS011;35425;51.142;17.178;2024-03-08T09:49:25;6.50;;;5.90;;
39970;SDS011;35425;51.142;17.178;2024-03-08T09:51:53;6.85;;;5.82;;
39970;SDS011;35425;51.142;17.178;2024-03-08T09:54:20;6.80;;;5.40;;
39970;SDS011;35425;51.142;17.178;2024-03-08T09:56:52;6.50;;;5.90;;
39970;SDS011;35425;51.142;17.178;2024-03-08T09:59:20;6.43;;;5.65;;
39970;SDS011;35425;51.142;17.178;2024-03-08T10:01:49;6.00;;;5.40;;
39970;SDS011;35425;51.142;17.178;2024-03-08T10:04:19;6.30;;;5.70;;
39970;SDS011;35425;51.142;17.178;2024-03-08T10:06:46;6.72;;;6.13;;
39970;SDS011;35425;51.142;17.178;2024-03-08T10:09:16;6.45;;;5.85;;
39970;SDS011;35425;51.142;17.178;2024-03-08T10:11:43;6.38;;;5.75;;
39970;SDS011;35425;51.142;17.178;2024-03-08T10:14:11;6.70;;;6.00;;
39970;SDS011;35425;51.142;17.178;2024-03-08T10:16:38;6.30;;;5.70;;
39970;SDS011;35425;51.142;17.178;2024-03-08T10:19:06;6.60;;;6.00;;
39970;SDS011;35425;51.142;17.178;2024-03-08T10:21:34;6.35;;;5.75;;
39970;SDS011;35425;51.142;17.178;2024-03-08T10:24:02;6.05;;;5.45;;
39970;SDS011;35425;51.142;17.178;2024-03-08T10:26:29;6.28;;;5.68;;
39970;SDS011;35425;51.142;17.178;2024-03-08T10:28:57;6.60;;;6.00;;
39970;SDS011;35425;51.142;17.178;2024-03-08T10:31:24;6.60;;;6.00;;
39970;SDS011;35425;51.142;17.178;2024-03-08T10:33:52;6.75;;;6.15;;
39970;SDS011;35425;51.142;17.178;2024-03-08T10:36:19;6.97;;;6.28;;
39970;SDS011;35425;51.142;17.178;2024-03-08T10:38:46;7.00;;;6.30;;
39970;SDS011;35425;51.142;17.178;2024-03-08T10:41:16;7.03;;;6.15;;
39970;SDS011;35425;51.142;17.178;2024-03-08T10:49:55;7.10;;;6.40;;
39970;SDS011;35425;51.142;17.178;2024-03-08T10:52:31;6.75;;;6.05;;
39970;SDS011;35425;51.142;17.178;2024-03-08T10:55:01;7.10;;;6.40;;
39970;SDS011;35425;51.142;17.178;2024-03-08T10:57:31;6.90;;;6.25;;
39970;SDS011;35425;51.142;17.178;2024-03-08T10:59:58;6.95;;;6.20;;
39970;SDS011;35425;51.142;17.178;2024-03-08T11:02:25;6.18;;;5.68;;
39970;SDS011;35425;51.142;17.178;2024-03-08T11:04:54;6.50;;;5.90;;
39970;SDS011;35425;51.142;17.178;2024-03-08T11:07:24;6.97;;;6.35;;
39970;SDS011;35425;51.142;17.178;2024-03-08T11:09:54;6.68;;;6.15;;
39970;SDS011;35425;51.142;17.178;2024-03-08T11:14:58;7.10;;;6.40;;
39970;SDS011;35425;51.142;17.178;2024-03-08T11:20:10;6.57;;;5.97;;
39970;SDS011;35425;51.142;17.178;2024-03-08T11:22:49;6.40;;;5.75;;
39970;SDS011;35425;51.142;17.178;2024-03-08T11:25:34;6.55;;;5.95;;
39970;SDS011;35425;51.142;17.178;2024-03-08T11:28:13;6.90;;;6.30;;
39970;SDS011;35425;51.142;17.178;2024-03-08T11:31:22;6.30;;;5.70;;
39970;SDS011;35425;51.142;17.178;2024-03-08T11:33:32;6.13;;;5.55;;
39970;SDS011;35425;51.142;17.178;2024-03-08T11:38:41;6.50;;;5.90;;
39970;SDS011;35425;51.142;17.178;2024-03-08T11:41:10;6.85;;;6.25;;
39970;SDS011;35425;51.142;17.178;2024-03-08T11:43:44;6.88;;;6.13;;
39970;SDS011;35425;51.142;17.178;2024-03-08T11:46:11;6.40;;;5.80;;
39970;SDS011;35425;51.142;17.178;2024-03-08T11:48:46;6.72;;;6.05;;
39970;SDS011;35425;51.142;17.178;2024-03-08T11:51:17;7.88;;;6.22;;
39970;SDS011;35425;51.142;17.178;2024-03-08T11:53:49;6.55;;;5.95;;
39970;SDS011;35425;51.142;17.178;2024-03-08T11:56:17;6.85;;;6.25;;
39970;SDS011;35425;51.142;17.178;2024-03-08T11:58:54;6.78;;;6.18;;
39970;SDS011;35425;51.142;17.178;2024-03-08T12:01:24;7.10;;;6.38;;
39970;SDS011;35425;51.142;17.178;2024-03-08T12:03:53;6.60;;;5.97;;
39970;SDS011;35425;51.142;17.178;2024-03-08T12:06:21;6.45;;;5.85;;
39970;SDS011;35425;51.142;17.178;2024-03-08T12:08:53;6.40;;;5.80;;
39970;SDS011;35425;51.142;17.178;2024-03-08T12:11:20;6.70;;;6.10;;
39970;SDS011;35425;51.142;17.178;2024-03-08T12:13:51;6.88;;;6.18;;
39970;SDS011;35425;51.142;17.178;2024-03-08T12:16:19;6.53;;;5.93;;
39970;SDS011;35425;51.142;17.178;2024-03-08T12:18:50;6.25;;;5.65;;
39970;SDS011;35425;51.142;17.178;2024-03-08T12:21:18;6.38;;;5.78;;
39970;SDS011;35425;51.142;17.178;2024-03-08T12:23:51;7.22;;;6.28;;
39970;SDS011;35425;51.142;17.178;2024-03-08T12:26:29;7.03;;;6.32;;
39970;SDS011;35425;51.142;17.178;2024-03-08T12:29:15;6.05;;;5.45;;
39970;SDS011;35425;51.142;17.178;2024-03-08T12:31:51;6.15;;;5.65;;
39970;SDS011;35425;51.142;17.178;2024-03-08T12:34:20;6.40;;;5.80;;
39970;SDS011;35425;51.142;17.178;2024-03-08T12:36:48;6.68;;;5.78;;
39970;SDS011;35425;51.142;17.178;2024-03-08T12:39:16;6.70;;;5.95;;
39970;SDS011;35425;51.142;17.178;2024-03-08T12:41:44;6.50;;;5.75;;
39970;SDS011;35425;51.142;17.178;2024-03-08T12:44:11;6.35;;;5.75;;
39970;SDS011;35425;51.142;17.178;2024-03-08T12:46:38;6.20;;;5.60;;
39970;SDS011;35425;51.142;17.178;2024-03-08T12:49:07;6.28;;;5.70;;
39970;SDS011;35425;51.142;17.178;2024-03-08T12:51:37;6.10;;;5.50;;
39970;SDS011;35425;51.142;17.178;2024-03-08T12:54:05;6.55;;;5.95;;
39970;SDS011;35425;51.142;17.178;2024-03-08T12:56:35;5.93;;;5.18;;
39970;SDS011;35425;51.142;17.178;2024-03-08T12:59:07;6.13;;;5.53;;
39970;SDS011;35425;51.142;17.178;2024-03-08T13:01:34;5.78;;;5.28;;
39970;SDS011;35425;51.142;17.178;2024-03-08T13:04:04;6.93;;;5.90;;
39970;SDS011;35425;51.142;17.178;2024-03-08T13:06:33;6.68;;;5.88;;
39970;SDS011;35425;51.142;17.178;2024-03-08T13:08:59;7.43;;;6.18;;
39970;SDS011;35425;51.142;17.178;2024-03-08T13:11:32;9.57;;;6.80;;
39970;SDS011;35425;51.142;17.178;2024-03-08T13:14:06;7.70;;;6.57;;
39970;SDS011;35425;51.142;17.178;2024-03-08T13:16:34;7.65;;;6.03;;
39970;SDS011;35425;51.142;17.178;2024-03-08T13:19:02;9.25;;;7.50;;
39970;SDS011;35425;51.142;17.178;2024-03-08T13:21:29;10.07;;;7.20;;
39970;SDS011;35425;51.142;17.178;2024-03-08T13:23:57;9.15;;;7.00;;
39970;SDS011;35425;51.142;17.178;2024-03-08T13:26:28;8.65;;;7.03;;
39970;SDS011;35425;51.142;17.178;2024-03-08T13:28:59;11.52;;;7.50;;
39970;SDS011;35425;51.142;17.178;2024-03-08T13:31:27;9.10;;;7.20;;
39970;SDS011;35425;51.142;17.178;2024-03-08T13:33:54;9.95;;;7.15;;
39970;SDS011;35425;51.142;17.178;2024-03-08T13:36:27;9.38;;;7.68;;
39970;SDS011;35425;51.142;17.178;2024-03-08T13:39:01;9.98;;;7.70;;
39970;SDS011;35425;51.142;17.178;2024-03-08T13:41:41;10.00;;;8.13;;
39970;SDS011;35425;51.142;17.178;2024-03-08T13:44:11;9.07;;;7.15;;
39970;SDS011;35425;51.142;17.178;2024-03-08T13:46:38;8.55;;;7.20;;
39970;SDS011;35425;51.142;17.178;2024-03-08T13:49:06;8.93;;;7.60;;
39970;SDS011;35425;51.142;17.178;2024-03-08T13:51:37;8.35;;;7.30;;
39970;SDS011;35425;51.142;17.178;2024-03-08T13:54:05;8.50;;;7.40;;
39970;SDS011;35425;51.142;17.178;2024-03-08T13:56:33;9.80;;;6.72;;
39970;SDS011;35425;51.142;17.178;2024-03-08T13:59:03;8.10;;;7.00;;
39970;SDS011;35425;51.142;17.178;2024-03-08T14:01:30;7.93;;;6.75;;
39970;SDS011;35425;51.142;17.178;2024-03-08T14:03:57;7.57;;;6.88;;
39970;SDS011;35425;51.142;17.178;2024-03-08T14:06:26;8.35;;;6.82;;
39970;SDS011;35425;51.142;17.178;2024-03-08T14:08:53;7.95;;;7.15;;
39970;SDS011;35425;51.142;17.178;2024-03-08T14:11:23;7.45;;;6.65;;
39970;SDS011;35425;51.142;17.178;2024-03-08T14:13:50;7.30;;;6.60;;
39970;SDS011;35425;51.142;17.178;2024-03-08T14:16:17;8.98;;;7.45;;
39970;SDS011;35425;51.142;17.178;2024-03-08T14:18:44;7.18;;;6.47;;
39970;SDS011;35425;51.142;17.178;2024-03-08T14:21:11;7.55;;;6.72;;
39970;SDS011;35425;51.142;17.178;2024-03-08T14:23:40;7.47;;;6.78;;
39970;SDS011;35425;51.142;17.178;2024-03-08T14:26:07;6.93;;;6.25;;
39970;SDS011;35425;51.142;17.178;2024-03-08T14:28:35;7.43;;;6.68;;
39970;SDS011;35425;51.142;17.178;2024-03-08T14:31:02;8.38;;;7.53;;
39970;SDS011;35425;51.142;17.178;2024-03-08T14:33:32;6.75;;;6.05;;
39970;SDS011;35425;51.142;17.178;2024-03-08T14:35:59;7.70;;;6.97;;
39970;SDS011;35425;51.142;17.178;2024-03-08T14:38:28;7.15;;;6.45;;
39970;SDS011;35425;51.142;17.178;2024-03-08T14:40:54;8.10;;;7.10;;
39970;SDS011;35425;51.142;17.178;2024-03-08T14:43:22;8.45;;;6.65;;
39970;SDS011;35425;51.142;17.178;2024-03-08T14:45:49;7.57;;;6.50;;
39970;SDS011;35425;51.142;17.178;2024-03-08T14:48:17;7.45;;;6.75;;
39970;SDS011;35425;51.142;17.178;2024-03-08T14:50:44;8.05;;;7.25;;
39970;SDS011;35425;51.142;17.178;2024-03-08T14:53:14;7.53;;;6.82;;
39970;SDS011;35425;51.142;17.178;2024-03-08T14:55:43;7.82;;;7.03;;
39970;SDS011;35425;51.142;17.178;2024-03-08T14:58:13;8.05;;;7.25;;